TOWK1: Whitewater River, Towanda, KS

Data processed at Tue May 21 2019 23:50


All information presented herein is the property of the government of the United States of America and may be revised or deleted at any time without prior notice.
Dissemination of this information without the expressed written consent of the Public Affairs Office, Tulsa District U.S. Army Corps of Engineers is strictly prohibited.
These data are gathered electronically and, as presented, have not undergone any form of quality control. These data are not guaranteed to be valid or correct.
Go to home page.
Go to station list.
Go to home page.

Downstream station:


Previous Day
Next Day
Current Day
    
SHEF ID:       TOWK1     WHITEWATER R AT TOWANDA, KS
STATION TYPE:  
Regulating: Stage =    22.00, Flow =     7669

               PRECIP     STAGE  RIV-FLOW  BAT-LOAD
                   in        ft       cfs      volt
              Ccp-Rev   Ccp-Rev   Ccp-Rev   Ccp-Rev
(US/Central)
05/21 00:00      0.00     21.12      6970     12.49
05/21 01:00      0.05     21.75      7467     12.49
05/21 02:00      0.05     22.23      7857     12.49
05/21 03:00      0.02     22.58      8164     12.49
05/21 04:00      0.18     22.84      8454     12.49
05/21 05:00      0.31     23.10      8750     12.49
05/21 06:00      0.27     23.36      9053     12.41
05/21 07:00      0.23     23.67      9464     12.49
05/21 08:00      0.09     23.99      9943     12.49
05/21 09:00      0.05     24.32     10454     12.49
05/21 10:00      0.00     24.66     11084     12.49
05/21 11:00      0.00     25.04     11831     12.49
05/21 12:00      0.02     25.49     12929     12.49
05/21 13:00      0.00     25.93     14117     12.49
05/21 14:00      0.05     26.19     15266     12.57
05/21 15:00      0.00     26.33     15917     12.89
05/21 16:00      0.00     26.42     16349     12.81
05/21 17:00      0.00     26.41     16300     12.73
05/21 18:00      0.00     26.38     16156     12.57
05/21 19:00      0.00     26.34     15965     12.57
05/21 20:00      0.00     26.29     15729     12.49
05/21 21:00      0.00     26.26     15589     12.49
05/21 22:00      0.00     26.20     15312     12.49
05/21 23:00      0.00     26.14     15039     12.49